sensor_id;sensor_type;location;lat;lon;timestamp;P1;P2;P0
48155;PMS5003;35568;48.104;11.782;2023-08-01T00:01:41;2;2;
48155;PMS5003;35568;48.104;11.782;2023-08-01T00:04:08;2;2;
48155;PMS5003;35568;48.104;11.782;2023-08-01T00:06:35;3;3;
48155;PMS5003;35568;48.104;11.782;2023-08-01T00:09:01;2;2;
48155;PMS5003;35568;48.104;11.782;2023-08-01T00:11:28;2;2;
48155;PMS5003;35568;48.104;11.782;2023-08-01T00:13:55;3;3;
48155;PMS5003;35568;48.104;11.782;2023-08-01T00:16:22;5;4;
48155;PMS5003;35568;48.104;11.782;2023-08-01T00:18:48;2;2;
48155;PMS5003;35568;48.104;11.782;2023-08-01T00:21:16;1;1;
48155;PMS5003;35568;48.104;11.782;2023-08-01T00:23:42;4;4;
48155;PMS5003;35568;48.104;11.782;2023-08-01T00:26:09;3;3;
48155;PMS5003;35568;48.104;11.782;2023-08-01T00:28:36;3;2;
48155;PMS5003;35568;48.104;11.782;2023-08-01T00:31:04;2;2;
48155;PMS5003;35568;48.104;11.782;2023-08-01T00:33:32;3;3;
48155;PMS5003;35568;48.104;11.782;2023-08-01T00:35:59;4;3;
48155;PMS5003;35568;48.104;11.782;2023-08-01T00:38:26;2;2;
48155;PMS5003;35568;48.104;11.782;2023-08-01T00:40:53;2;2;
48155;PMS5003;35568;48.104;11.782;2023-08-01T00:43:20;3;3;
48155;PMS5003;35568;48.104;11.782;2023-08-01T00:45:47;1;1;
48155;PMS5003;35568;48.104;11.782;2023-08-01T00:48:14;2;2;
48155;PMS5003;35568;48.104;11.782;2023-08-01T00:50:41;3;3;
48155;PMS5003;35568;48.104;11.782;2023-08-01T00:53:08;2;2;
48155;PMS5003;35568;48.104;11.782;2023-08-01T00:55:36;2;2;
48155;PMS5003;35568;48.104;11.782;2023-08-01T00:58:03;1;1;
48155;PMS5003;35568;48.104;11.782;2023-08-01T01:00:30;4;4;
48155;PMS5003;35568;48.104;11.782;2023-08-01T01:02:57;2;2;
48155;PMS5003;35568;48.104;11.782;2023-08-01T01:05:24;3;3;
48155;PMS5003;35568;48.104;11.782;2023-08-01T01:07:53;4;3;
48155;PMS5003;35568;48.104;11.782;2023-08-01T01:10:22;2;2;
48155;PMS5003;35568;48.104;11.782;2023-08-01T01:12:48;2;2;
48155;PMS5003;35568;48.104;11.782;2023-08-01T01:15:15;3;2;
48155;PMS5003;35568;48.104;11.782;2023-08-01T01:17:42;1;1;
48155;PMS5003;35568;48.104;11.782;2023-08-01T01:20:09;3;3;
48155;PMS5003;35568;48.104;11.782;2023-08-01T01:22:36;3;3;
48155;PMS5003;35568;48.104;11.782;2023-08-01T01:25:05;3;3;
48155;PMS5003;35568;48.104;11.782;2023-08-01T01:27:34;2;2;
48155;PMS5003;35568;48.104;11.782;2023-08-01T01:30:04;4;4;
48155;PMS5003;35568;48.104;11.782;2023-08-01T01:32:32;5;5;
48155;PMS5003;35568;48.104;11.782;2023-08-01T01:35:00;4;4;
48155;PMS5003;35568;48.104;11.782;2023-08-01T01:37:29;3;3;
48155;PMS5003;35568;48.104;11.782;2023-08-01T01:39:56;3;2;
48155;PMS5003;35568;48.104;11.782;2023-08-01T01:42:23;1;1;
48155;PMS5003;35568;48.104;11.782;2023-08-01T01:44:49;5;4;
48155;PMS5003;35568;48.104;11.782;2023-08-01T01:47:16;3;3;
48155;PMS5003;35568;48.104;11.782;2023-08-01T01:49:43;2;2;
48155;PMS5003;35568;48.104;11.782;2023-08-01T01:52:10;3;2;
48155;PMS5003;35568;48.104;11.782;2023-08-01T01:54:36;2;2;
48155;PMS5003;35568;48.104;11.782;2023-08-01T01:57:03;3;3;
48155;PMS5003;35568;48.104;11.782;2023-08-01T01:59:31;3;3;
48155;PMS5003;35568;48.104;11.782;2023-08-01T02:01:58;3;2;
48155;PMS5003;35568;48.104;11.782;2023-08-01T02:04:24;4;4;
48155;PMS5003;35568;48.104;11.782;2023-08-01T02:06:51;2;2;
48155;PMS5003;35568;48.104;11.782;2023-08-01T02:09:18;1;1;
48155;PMS5003;35568;48.104;11.782;2023-08-01T02:11:45;1;1;
48155;PMS5003;35568;48.104;11.782;2023-08-01T02:14:12;2;2;
48155;PMS5003;35568;48.104;11.782;2023-08-01T02:16:39;2;2;
48155;PMS5003;35568;48.104;11.782;2023-08-01T02:19:06;3;3;
48155;PMS5003;35568;48.104;11.782;2023-08-01T02:21:33;3;3;
48155;PMS5003;35568;48.104;11.782;2023-08-01T02:24:00;3;2;
48155;PMS5003;35568;48.104;11.782;2023-08-01T02:26:26;3;3;
48155;PMS5003;35568;48.104;11.782;2023-08-01T02:28:53;4;4;
48155;PMS5003;35568;48.104;11.782;2023-08-01T02:31:20;4;4;
48155;PMS5003;35568;48.104;11.782;2023-08-01T02:33:47;3;3;
48155;PMS5003;35568;48.104;11.782;2023-08-01T02:36:14;3;3;
48155;PMS5003;35568;48.104;11.782;2023-08-01T02:38:41;4;4;
48155;PMS5003;35568;48.104;11.782;2023-08-01T02:41:07;3;2;
48155;PMS5003;35568;48.104;11.782;2023-08-01T02:43:34;3;3;
48155;PMS5003;35568;48.104;11.782;2023-08-01T02:46:01;4;3;
48155;PMS5003;35568;48.104;11.782;2023-08-01T02:48:27;3;3;
48155;PMS5003;35568;48.104;11.782;2023-08-01T02:50:54;2;2;
48155;PMS5003;35568;48.104;11.782;2023-08-01T02:53:21;3;3;
48155;PMS5003;35568;48.104;11.782;2023-08-01T02:55:48;2;2;
48155;PMS5003;35568;48.104;11.782;2023-08-01T02:58:16;2;2;
48155;PMS5003;35568;48.104;11.782;2023-08-01T03:02:59;3;2;
48155;PMS5003;35568;48.104;11.782;2023-08-01T03:05:26;2;2;
48155;PMS5003;35568;48.104;11.782;2023-08-01T03:07:53;3;2;
48155;PMS5003;35568;48.104;11.782;2023-08-01T03:10:19;3;3;
48155;PMS5003;35568;48.104;11.782;2023-08-01T03:12:46;2;2;
48155;PMS5003;35568;48.104;11.782;2023-08-01T03:15:14;3;2;
48155;PMS5003;35568;48.104;11.782;2023-08-01T03:17:41;2;2;
48155;PMS5003;35568;48.104;11.782;2023-08-01T03:20:08;2;2;
48155;PMS5003;35568;48.104;11.782;2023-08-01T03:22:35;2;2;
48155;PMS5003;35568;48.104;11.782;2023-08-01T03:25:03;2;1;
48155;PMS5003;35568;48.104;11.782;2023-08-01T03:27:30;3;3;
48155;PMS5003;35568;48.104;11.782;2023-08-01T03:29:57;3;3;
48155;PMS5003;35568;48.104;11.782;2023-08-01T03:32:24;5;4;
48155;PMS5003;35568;48.104;11.782;2023-08-01T03:34:51;3;3;
48155;PMS5003;35568;48.104;11.782;2023-08-01T03:37:17;2;2;
48155;PMS5003;35568;48.104;11.782;2023-08-01T03:39:44;2;2;
48155;PMS5003;35568;48.104;11.782;2023-08-01T03:42:11;3;2;
48155;PMS5003;35568;48.104;11.782;2023-08-01T03:44:38;3;3;
48155;PMS5003;35568;48.104;11.782;2023-08-01T03:47:05;4;4;
48155;PMS5003;35568;48.104;11.782;2023-08-01T03:49:31;4;4;
48155;PMS5003;35568;48.104;11.782;2023-08-01T03:51:58;3;3;
48155;PMS5003;35568;48.104;11.782;2023-08-01T03:54:25;2;2;
48155;PMS5003;35568;48.104;11.782;2023-08-01T03:56:52;3;3;
48155;PMS5003;35568;48.104;11.782;2023-08-01T03:59:18;4;4;
48155;PMS5003;35568;48.104;11.782;2023-08-01T04:01:45;3;3;
48155;PMS5003;35568;48.104;11.782;2023-08-01T04:04:12;6;6;
48155;PMS5003;35568;48.104;11.782;2023-08-01T04:06:39;3;2;
48155;PMS5003;35568;48.104;11.782;2023-08-01T04:09:06;3;3;
48155;PMS5003;35568;48.104;11.782;2023-08-01T04:11:33;2;2;
48155;PMS5003;35568;48.104;11.782;2023-08-01T04:13:59;4;4;
48155;PMS5003;35568;48.104;11.782;2023-08-01T04:16:26;4;3;
48155;PMS5003;35568;48.104;11.782;2023-08-01T04:18:53;3;3;
48155;PMS5003;35568;48.104;11.782;2023-08-01T04:21:20;5;4;
48155;PMS5003;35568;48.104;11.782;2023-08-01T04:23:47;6;5;
48155;PMS5003;35568;48.104;11.782;2023-08-01T04:26:13;1;1;
48155;PMS5003;35568;48.104;11.782;2023-08-01T04:28:40;3;3;
48155;PMS5003;35568;48.104;11.782;2023-08-01T04:31:07;2;2;
48155;PMS5003;35568;48.104;11.782;2023-08-01T04:33:34;2;2;
48155;PMS5003;35568;48.104;11.782;2023-08-01T04:36:00;2;2;
48155;PMS5003;35568;48.104;11.782;2023-08-01T04:38:27;3;3;
48155;PMS5003;35568;48.104;11.782;2023-08-01T04:40:54;3;3;
48155;PMS5003;35568;48.104;11.782;2023-08-01T04:43:21;3;3;
48155;PMS5003;35568;48.104;11.782;2023-08-01T04:45:48;4;4;
48155;PMS5003;35568;48.104;11.782;2023-08-01T04:48:14;2;2;
48155;PMS5003;35568;48.104;11.782;2023-08-01T04:50:41;4;4;
48155;PMS5003;35568;48.104;11.782;2023-08-01T04:53:08;4;4;
48155;PMS5003;35568;48.104;11.782;2023-08-01T04:55:35;2;2;
48155;PMS5003;35568;48.104;11.782;2023-08-01T04:58:01;3;3;
48155;PMS5003;35568;48.104;11.782;2023-08-01T05:00:29;9;8;
48155;PMS5003;35568;48.104;11.782;2023-08-01T05:02:56;2;2;
48155;PMS5003;35568;48.104;11.782;2023-08-01T05:05:23;2;2;
48155;PMS5003;35568;48.104;11.782;2023-08-01T05:07:50;5;5;
48155;PMS5003;35568;48.104;11.782;2023-08-01T05:10:17;4;4;
48155;PMS5003;35568;48.104;11.782;2023-08-01T05:12:43;4;4;
48155;PMS5003;35568;48.104;11.782;2023-08-01T05:15:10;4;4;
48155;PMS5003;35568;48.104;11.782;2023-08-01T05:17:37;4;4;
48155;PMS5003;35568;48.104;11.782;2023-08-01T05:20:04;4;4;
48155;PMS5003;35568;48.104;11.782;2023-08-01T05:22:32;4;4;
48155;PMS5003;35568;48.104;11.782;2023-08-01T05:24:59;4;4;
48155;PMS5003;35568;48.104;11.782;2023-08-01T05:27:26;4;4;
48155;PMS5003;35568;48.104;11.782;2023-08-01T05:29:53;3;3;
48155;PMS5003;35568;48.104;11.782;2023-08-01T05:32:20;3;3;
48155;PMS5003;35568;48.104;11.782;2023-08-01T05:34:47;3;3;
48155;PMS5003;35568;48.104;11.782;2023-08-01T05:37:14;5;4;
48155;PMS5003;35568;48.104;11.782;2023-08-01T05:39:41;5;4;
48155;PMS5003;35568;48.104;11.782;2023-08-01T05:42:08;3;3;
48155;PMS5003;35568;48.104;11.782;2023-08-01T05:44:35;3;3;
48155;PMS5003;35568;48.104;11.782;2023-08-01T05:47:01;3;3;
48155;PMS5003;35568;48.104;11.782;2023-08-01T05:49:29;4;4;
48155;PMS5003;35568;48.104;11.782;2023-08-01T05:51:56;4;4;
48155;PMS5003;35568;48.104;11.782;2023-08-01T05:54:23;3;3;
48155;PMS5003;35568;48.104;11.782;2023-08-01T05:56:49;3;3;
48155;PMS5003;35568;48.104;11.782;2023-08-01T05:59:16;4;4;
48155;PMS5003;35568;48.104;11.782;2023-08-01T06:01:43;3;3;
48155;PMS5003;35568;48.104;11.782;2023-08-01T06:04:10;2;2;
48155;PMS5003;35568;48.104;11.782;2023-08-01T06:06:36;3;3;
48155;PMS5003;35568;48.104;11.782;2023-08-01T06:09:03;4;4;
48155;PMS5003;35568;48.104;11.782;2023-08-01T06:11:30;4;4;
48155;PMS5003;35568;48.104;11.782;2023-08-01T06:13:58;4;3;
48155;PMS5003;35568;48.104;11.782;2023-08-01T06:16:24;4;4;
48155;PMS5003;35568;48.104;11.782;2023-08-01T06:18:51;5;5;
48155;PMS5003;35568;48.104;11.782;2023-08-01T06:21:19;4;3;
48155;PMS5003;35568;48.104;11.782;2023-08-01T06:23:45;3;3;
48155;PMS5003;35568;48.104;11.782;2023-08-01T06:26:12;4;4;
48155;PMS5003;35568;48.104;11.782;2023-08-01T06:28:39;5;5;
48155;PMS5003;35568;48.104;11.782;2023-08-01T06:31:06;4;4;
48155;PMS5003;35568;48.104;11.782;2023-08-01T06:33:32;5;5;
48155;PMS5003;35568;48.104;11.782;2023-08-01T06:35:59;4;4;
48155;PMS5003;35568;48.104;11.782;2023-08-01T06:38:32;4;4;
48155;PMS5003;35568;48.104;11.782;2023-08-01T06:41:22;5;5;
48155;PMS5003;35568;48.104;11.782;2023-08-01T06:43:49;3;3;
48155;PMS5003;35568;48.104;11.782;2023-08-01T06:46:16;4;4;
48155;PMS5003;35568;48.104;11.782;2023-08-01T06:48:43;5;4;
48155;PMS5003;35568;48.104;11.782;2023-08-01T06:51:09;5;5;
48155;PMS5003;35568;48.104;11.782;2023-08-01T06:53:36;5;4;
48155;PMS5003;35568;48.104;11.782;2023-08-01T06:56:03;8;5;
48155;PMS5003;35568;48.104;11.782;2023-08-01T06:58:30;2;2;
48155;PMS5003;35568;48.104;11.782;2023-08-01T07:00:57;5;5;
48155;PMS5003;35568;48.104;11.782;2023-08-01T07:03:24;4;4;
48155;PMS5003;35568;48.104;11.782;2023-08-01T07:05:51;3;2;
48155;PMS5003;35568;48.104;11.782;2023-08-01T07:08:18;3;3;
48155;PMS5003;35568;48.104;11.782;2023-08-01T07:10:45;5;4;
48155;PMS5003;35568;48.104;11.782;2023-08-01T07:13:12;4;4;
48155;PMS5003;35568;48.104;11.782;2023-08-01T07:15:38;4;4;
48155;PMS5003;35568;48.104;11.782;2023-08-01T07:18:15;5;5;
48155;PMS5003;35568;48.104;11.782;2023-08-01T07:20:42;3;3;
48155;PMS5003;35568;48.104;11.782;2023-08-01T07:23:09;4;4;
48155;PMS5003;35568;48.104;11.782;2023-08-01T07:25:37;2;2;
48155;PMS5003;35568;48.104;11.782;2023-08-01T07:28:04;4;4;
48155;PMS5003;35568;48.104;11.782;2023-08-01T07:30:30;4;4;
48155;PMS5003;35568;48.104;11.782;2023-08-01T07:32:57;6;5;
48155;PMS5003;35568;48.104;11.782;2023-08-01T07:35:24;2;2;
48155;PMS5003;35568;48.104;11.782;2023-08-01T07:37:56;1;1;
48155;PMS5003;35568;48.104;11.782;2023-08-01T07:40:29;3;3;
48155;PMS5003;35568;48.104;11.782;2023-08-01T07:42:56;5;5;
48155;PMS5003;35568;48.104;11.782;2023-08-01T07:45:22;3;3;
48155;PMS5003;35568;48.104;11.782;2023-08-01T07:47:49;4;4;
48155;PMS5003;35568;48.104;11.782;2023-08-01T07:50:16;3;3;
48155;PMS5003;35568;48.104;11.782;2023-08-01T07:52:43;4;4;
48155;PMS5003;35568;48.104;11.782;2023-08-01T07:55:09;3;3;
48155;PMS5003;35568;48.104;11.782;2023-08-01T07:57:36;2;2;
48155;PMS5003;35568;48.104;11.782;2023-08-01T08:00:03;5;5;
48155;PMS5003;35568;48.104;11.782;2023-08-01T08:02:31;4;3;
48155;PMS5003;35568;48.104;11.782;2023-08-01T08:04:58;3;3;
48155;PMS5003;35568;48.104;11.782;2023-08-01T08:07:25;2;2;
48155;PMS5003;35568;48.104;11.782;2023-08-01T08:09:52;3;3;
48155;PMS5003;35568;48.104;11.782;2023-08-01T08:12:18;2;2;
48155;PMS5003;35568;48.104;11.782;2023-08-01T08:14:45;3;3;
48155;PMS5003;35568;48.104;11.782;2023-08-01T08:17:12;4;4;
48155;PMS5003;35568;48.104;11.782;2023-08-01T08:19:39;3;3;
48155;PMS5003;35568;48.104;11.782;2023-08-01T08:22:06;4;3;
48155;PMS5003;35568;48.104;11.782;2023-08-01T08:24:32;5;5;
48155;PMS5003;35568;48.104;11.782;2023-08-01T08:26:59;2;2;
48155;PMS5003;35568;48.104;11.782;2023-08-01T08:29:26;2;2;
48155;PMS5003;35568;48.104;11.782;2023-08-01T08:31:53;4;4;
48155;PMS5003;35568;48.104;11.782;2023-08-01T08:34:20;5;4;
48155;PMS5003;35568;48.104;11.782;2023-08-01T08:36:46;2;2;
48155;PMS5003;35568;48.104;11.782;2023-08-01T08:39:13;3;3;
48155;PMS5003;35568;48.104;11.782;2023-08-01T08:41:43;2;2;
48155;PMS5003;35568;48.104;11.782;2023-08-01T08:44:14;4;4;
48155;PMS5003;35568;48.104;11.782;2023-08-01T08:46:43;4;4;
48155;PMS5003;35568;48.104;11.782;2023-08-01T08:49:15;4;4;
48155;PMS5003;35568;48.104;11.782;2023-08-01T08:51:43;2;2;
48155;PMS5003;35568;48.104;11.782;2023-08-01T08:54:12;3;3;
48155;PMS5003;35568;48.104;11.782;2023-08-01T08:56:40;4;4;
48155;PMS5003;35568;48.104;11.782;2023-08-01T08:59:08;3;3;
48155;PMS5003;35568;48.104;11.782;2023-08-01T09:01:35;4;4;
48155;PMS5003;35568;48.104;11.782;2023-08-01T09:04:02;3;3;
48155;PMS5003;35568;48.104;11.782;2023-08-01T09:06:31;5;5;
48155;PMS5003;35568;48.104;11.782;2023-08-01T09:09:01;4;4;
48155;PMS5003;35568;48.104;11.782;2023-08-01T09:11:35;3;3;
48155;PMS5003;35568;48.104;11.782;2023-08-01T09:14:07;3;3;
48155;PMS5003;35568;48.104;11.782;2023-08-01T09:16:33;6;5;
48155;PMS5003;35568;48.104;11.782;2023-08-01T09:19:01;4;4;
48155;PMS5003;35568;48.104;11.782;2023-08-01T09:21:30;4;3;
48155;PMS5003;35568;48.104;11.782;2023-08-01T09:23:59;6;4;
48155;PMS5003;35568;48.104;11.782;2023-08-01T09:26:35;4;3;
48155;PMS5003;35568;48.104;11.782;2023-08-01T09:29:02;3;3;
48155;PMS5003;35568;48.104;11.782;2023-08-01T09:31:30;3;3;
48155;PMS5003;35568;48.104;11.782;2023-08-01T09:33:59;4;4;
48155;PMS5003;35568;48.104;11.782;2023-08-01T09:36:26;3;3;
48155;PMS5003;35568;48.104;11.782;2023-08-01T09:38:57;6;5;
48155;PMS5003;35568;48.104;11.782;2023-08-01T09:41:25;4;3;
48155;PMS5003;35568;48.104;11.782;2023-08-01T09:43:53;3;3;
48155;PMS5003;35568;48.104;11.782;2023-08-01T09:46:19;2;2;
48155;PMS5003;35568;48.104;11.782;2023-08-01T09:48:46;4;4;
48155;PMS5003;35568;48.104;11.782;2023-08-01T09:51:14;4;4;
48155;PMS5003;35568;48.104;11.782;2023-08-01T09:53:46;3;3;
48155;PMS5003;35568;48.104;11.782;2023-08-01T09:56:14;3;3;
48155;PMS5003;35568;48.104;11.782;2023-08-01T09:58:44;6;4;
48155;PMS5003;35568;48.104;11.782;2023-08-01T10:01:12;5;5;
48155;PMS5003;35568;48.104;11.782;2023-08-01T10:03:42;5;5;
48155;PMS5003;35568;48.104;11.782;2023-08-01T10:06:12;4;4;
48155;PMS5003;35568;48.104;11.782;2023-08-01T10:08:44;4;2;
48155;PMS5003;35568;48.104;11.782;2023-08-01T10:11:12;3;3;
48155;PMS5003;35568;48.104;11.782;2023-08-01T10:13:41;3;3;
48155;PMS5003;35568;48.104;11.782;2023-08-01T10:16:08;3;3;
48155;PMS5003;35568;48.104;11.782;2023-08-01T10:18:36;4;4;
48155;PMS5003;35568;48.104;11.782;2023-08-01T10:21:04;4;3;
48155;PMS5003;35568;48.104;11.782;2023-08-01T10:23:33;2;2;
48155;PMS5003;35568;48.104;11.782;2023-08-01T10:26:00;3;3;
48155;PMS5003;35568;48.104;11.782;2023-08-01T10:28:31;3;3;
48155;PMS5003;35568;48.104;11.782;2023-08-01T10:31:06;3;3;
48155;PMS5003;35568;48.104;11.782;2023-08-01T10:33:34;4;4;
48155;PMS5003;35568;48.104;11.782;2023-08-01T10:36:12;2;2;
48155;PMS5003;35568;48.104;11.782;2023-08-01T10:38:44;2;2;
48155;PMS5003;35568;48.104;11.782;2023-08-01T10:41:21;2;2;
48155;PMS5003;35568;48.104;11.782;2023-08-01T10:44:03;1;1;
48155;PMS5003;35568;48.104;11.782;2023-08-01T10:46:47;3;3;
48155;PMS5003;35568;48.104;11.782;2023-08-01T10:49:16;3;3;
48155;PMS5003;35568;48.104;11.782;2023-08-01T10:51:45;2;2;
48155;PMS5003;35568;48.104;11.782;2023-08-01T10:54:20;2;2;
48155;PMS5003;35568;48.104;11.782;2023-08-01T10:56:48;3;3;
48155;PMS5003;35568;48.104;11.782;2023-08-01T10:59:16;3;3;
48155;PMS5003;35568;48.104;11.782;2023-08-01T11:01:45;2;2;
48155;PMS5003;35568;48.104;11.782;2023-08-01T11:04:15;0;0;
48155;PMS5003;35568;48.104;11.782;2023-08-01T11:06:44;2;2;
48155;PMS5003;35568;48.104;11.782;2023-08-01T11:09:15;3;3;
48155;PMS5003;35568;48.104;11.782;2023-08-01T11:11:43;2;2;
48155;PMS5003;35568;48.104;11.782;2023-08-01T11:14:11;3;3;
48155;PMS5003;35568;48.104;11.782;2023-08-01T11:16:39;3;2;
48155;PMS5003;35568;48.104;11.782;2023-08-01T11:19:06;2;2;
48155;PMS5003;35568;48.104;11.782;2023-08-01T11:21:43;2;2;
48155;PMS5003;35568;48.104;11.782;2023-08-01T11:24:10;3;2;
48155;PMS5003;35568;48.104;11.782;2023-08-01T11:26:39;1;1;
48155;PMS5003;35568;48.104;11.782;2023-08-01T11:29:12;1;1;
48155;PMS5003;35568;48.104;11.782;2023-08-01T11:31:41;1;1;
48155;PMS5003;35568;48.104;11.782;2023-08-01T11:34:19;2;1;
48155;PMS5003;35568;48.104;11.782;2023-08-01T11:36:46;1;1;
48155;PMS5003;35568;48.104;11.782;2023-08-01T11:39:13;1;1;
48155;PMS5003;35568;48.104;11.782;2023-08-01T11:41:42;1;1;
48155;PMS5003;35568;48.104;11.782;2023-08-01T11:44:09;1;1;
48155;PMS5003;35568;48.104;11.782;2023-08-01T11:46:36;1;1;
48155;PMS5003;35568;48.104;11.782;2023-08-01T11:49:06;1;1;
48155;PMS5003;35568;48.104;11.782;2023-08-01T11:51:38;1;1;
48155;PMS5003;35568;48.104;11.782;2023-08-01T11:54:06;2;2;
48155;PMS5003;35568;48.104;11.782;2023-08-01T11:56:33;1;1;
48155;PMS5003;35568;48.104;11.782;2023-08-01T11:59:07;1;1;
48155;PMS5003;35568;48.104;11.782;2023-08-01T12:01:37;2;1;
48155;PMS5003;35568;48.104;11.782;2023-08-01T12:04:05;0;0;
48155;PMS5003;35568;48.104;11.782;2023-08-01T12:06:32;0;0;
48155;PMS5003;35568;48.104;11.782;2023-08-01T12:09:05;2;2;
48155;PMS5003;35568;48.104;11.782;2023-08-01T12:11:34;1;1;
48155;PMS5003;35568;48.104;11.782;2023-08-01T12:14:01;0;0;
48155;PMS5003;35568;48.104;11.782;2023-08-01T12:16:30;2;2;
48155;PMS5003;35568;48.104;11.782;2023-08-01T12:18:58;2;2;
48155;PMS5003;35568;48.104;11.782;2023-08-01T12:21:24;2;2;
48155;PMS5003;35568;48.104;11.782;2023-08-01T12:23:51;2;2;
48155;PMS5003;35568;48.104;11.782;2023-08-01T12:26:18;3;2;
48155;PMS5003;35568;48.104;11.782;2023-08-01T12:28:45;2;2;
48155;PMS5003;35568;48.104;11.782;2023-08-01T12:31:11;2;2;
48155;PMS5003;35568;48.104;11.782;2023-08-01T12:33:43;4;3;
48155;PMS5003;35568;48.104;11.782;2023-08-01T12:36:09;2;2;
48155;PMS5003;35568;48.104;11.782;2023-08-01T12:38:36;3;2;
48155;PMS5003;35568;48.104;11.782;2023-08-01T12:41:03;2;2;
48155;PMS5003;35568;48.104;11.782;2023-08-01T12:43:30;2;1;
48155;PMS5003;35568;48.104;11.782;2023-08-01T12:45:57;3;3;
48155;PMS5003;35568;48.104;11.782;2023-08-01T12:48:24;2;2;
48155;PMS5003;35568;48.104;11.782;2023-08-01T12:50:52;1;1;
48155;PMS5003;35568;48.104;11.782;2023-08-01T12:53:20;2;1;
48155;PMS5003;35568;48.104;11.782;2023-08-01T12:55:51;2;2;
48155;PMS5003;35568;48.104;11.782;2023-08-01T12:58:19;0;0;
48155;PMS5003;35568;48.104;11.782;2023-08-01T13:00:45;1;1;
48155;PMS5003;35568;48.104;11.782;2023-08-01T13:03:13;1;1;
48155;PMS5003;35568;48.104;11.782;2023-08-01T13:05:41;0;0;
48155;PMS5003;35568;48.104;11.782;2023-08-01T13:08:09;1;1;
48155;PMS5003;35568;48.104;11.782;2023-08-01T13:10:36;1;1;
48155;PMS5003;35568;48.104;11.782;2023-08-01T13:13:05;1;1;
48155;PMS5003;35568;48.104;11.782;2023-08-01T13:15:32;1;0;
48155;PMS5003;35568;48.104;11.782;2023-08-01T13:17:59;1;1;
48155;PMS5003;35568;48.104;11.782;2023-08-01T13:20:30;1;1;
48155;PMS5003;35568;48.104;11.782;2023-08-01T13:22:58;1;1;
48155;PMS5003;35568;48.104;11.782;2023-08-01T13:25:24;0;0;
48155;PMS5003;35568;48.104;11.782;2023-08-01T13:27:53;1;1;
48155;PMS5003;35568;48.104;11.782;2023-08-01T13:30:20;1;1;
48155;PMS5003;35568;48.104;11.782;2023-08-01T13:32:47;0;0;
48155;PMS5003;35568;48.104;11.782;2023-08-01T13:35:14;0;0;
48155;PMS5003;35568;48.104;11.782;2023-08-01T13:37:41;1;1;
48155;PMS5003;35568;48.104;11.782;2023-08-01T13:40:09;1;1;
48155;PMS5003;35568;48.104;11.782;2023-08-01T13:42:37;1;0;
48155;PMS5003;35568;48.104;11.782;2023-08-01T13:45:04;1;1;
48155;PMS5003;35568;48.104;11.782;2023-08-01T13:47:32;2;2;
48155;PMS5003;35568;48.104;11.782;2023-08-01T13:49:59;2;1;
48155;PMS5003;35568;48.104;11.782;2023-08-01T13:52:25;1;1;
48155;PMS5003;35568;48.104;11.782;2023-08-01T13:54:52;1;1;
48155;PMS5003;35568;48.104;11.782;2023-08-01T13:57:19;1;1;
48155;PMS5003;35568;48.104;11.782;2023-08-01T13:59:46;1;1;
48155;PMS5003;35568;48.104;11.782;2023-08-01T14:02:12;1;1;
48155;PMS5003;35568;48.104;11.782;2023-08-01T14:04:39;0;0;
48155;PMS5003;35568;48.104;11.782;2023-08-01T14:07:07;2;1;
48155;PMS5003;35568;48.104;11.782;2023-08-01T14:09:33;0;0;
48155;PMS5003;35568;48.104;11.782;2023-08-01T14:12:00;1;1;
48155;PMS5003;35568;48.104;11.782;2023-08-01T14:14:27;0;0;
48155;PMS5003;35568;48.104;11.782;2023-08-01T14:16:54;2;2;
48155;PMS5003;35568;48.104;11.782;2023-08-01T14:19:20;1;1;
48155;PMS5003;35568;48.104;11.782;2023-08-01T14:21:47;1;0;
48155;PMS5003;35568;48.104;11.782;2023-08-01T14:24:14;1;0;
48155;PMS5003;35568;48.104;11.782;2023-08-01T14:26:41;1;1;
48155;PMS5003;35568;48.104;11.782;2023-08-01T14:29:07;0;0;
48155;PMS5003;35568;48.104;11.782;2023-08-01T14:31:34;0;0;
48155;PMS5003;35568;48.104;11.782;2023-08-01T14:34:01;1;1;
48155;PMS5003;35568;48.104;11.782;2023-08-01T14:36:28;2;1;
48155;PMS5003;35568;48.104;11.782;2023-08-01T14:38:54;2;2;
48155;PMS5003;35568;48.104;11.782;2023-08-01T14:41:21;1;1;
48155;PMS5003;35568;48.104;11.782;2023-08-01T14:43:48;1;1;
48155;PMS5003;35568;48.104;11.782;2023-08-01T14:46:15;1;0;
48155;PMS5003;35568;48.104;11.782;2023-08-01T14:48:41;2;2;
48155;PMS5003;35568;48.104;11.782;2023-08-01T14:51:08;3;3;
48155;PMS5003;35568;48.104;11.782;2023-08-01T14:53:35;1;1;
48155;PMS5003;35568;48.104;11.782;2023-08-01T14:56:02;2;2;
48155;PMS5003;35568;48.104;11.782;2023-08-01T14:58:29;2;2;
48155;PMS5003;35568;48.104;11.782;2023-08-01T15:00:56;2;1;
48155;PMS5003;35568;48.104;11.782;2023-08-01T15:03:23;0;0;
48155;PMS5003;35568;48.104;11.782;2023-08-01T15:05:50;1;1;
48155;PMS5003;35568;48.104;11.782;2023-08-01T15:08:16;0;0;
48155;PMS5003;35568;48.104;11.782;2023-08-01T15:10:43;0;0;
48155;PMS5003;35568;48.104;11.782;2023-08-01T15:13:10;2;2;
48155;PMS5003;35568;48.104;11.782;2023-08-01T15:15:37;1;1;
48155;PMS5003;35568;48.104;11.782;2023-08-01T15:18:05;2;1;
48155;PMS5003;35568;48.104;11.782;2023-08-01T15:20:31;1;1;
48155;PMS5003;35568;48.104;11.782;2023-08-01T15:22:59;0;0;
48155;PMS5003;35568;48.104;11.782;2023-08-01T15:25:26;0;0;
48155;PMS5003;35568;48.104;11.782;2023-08-01T15:27:52;0;0;
48155;PMS5003;35568;48.104;11.782;2023-08-01T15:30:19;0;0;
48155;PMS5003;35568;48.104;11.782;2023-08-01T15:32:46;0;0;
48155;PMS5003;35568;48.104;11.782;2023-08-01T15:35:13;0;0;
48155;PMS5003;35568;48.104;11.782;2023-08-01T15:37:39;1;1;
48155;PMS5003;35568;48.104;11.782;2023-08-01T15:40:07;1;1;
48155;PMS5003;35568;48.104;11.782;2023-08-01T15:42:34;0;0;
48155;PMS5003;35568;48.104;11.782;2023-08-01T15:45:01;0;0;
48155;PMS5003;35568;48.104;11.782;2023-08-01T15:47:27;0;0;
48155;PMS5003;35568;48.104;11.782;2023-08-01T15:49:55;2;1;
48155;PMS5003;35568;48.104;11.782;2023-08-01T15:52:27;0;0;
48155;PMS5003;35568;48.104;11.782;2023-08-01T15:54:54;0;0;
48155;PMS5003;35568;48.104;11.782;2023-08-01T15:57:21;1;0;
48155;PMS5003;35568;48.104;11.782;2023-08-01T15:59:48;0;0;
48155;PMS5003;35568;48.104;11.782;2023-08-01T16:02:15;1;1;
48155;PMS5003;35568;48.104;11.782;2023-08-01T16:04:41;0;0;
48155;PMS5003;35568;48.104;11.782;2023-08-01T16:07:08;1;1;
48155;PMS5003;35568;48.104;11.782;2023-08-01T16:09:35;0;0;
48155;PMS5003;35568;48.104;11.782;2023-08-01T16:12:02;0;0;
48155;PMS5003;35568;48.104;11.782;2023-08-01T16:14:29;0;0;
48155;PMS5003;35568;48.104;11.782;2023-08-01T16:16:56;0;0;
48155;PMS5003;35568;48.104;11.782;2023-08-01T16:19:23;0;0;
48155;PMS5003;35568;48.104;11.782;2023-08-01T16:21:50;0;0;
48155;PMS5003;35568;48.104;11.782;2023-08-01T16:24:16;0;0;
48155;PMS5003;35568;48.104;11.782;2023-08-01T16:26:43;0;0;
48155;PMS5003;35568;48.104;11.782;2023-08-01T16:29:10;1;1;
48155;PMS5003;35568;48.104;11.782;2023-08-01T16:31:37;0;0;
48155;PMS5003;35568;48.104;11.782;2023-08-01T16:34:04;1;0;
48155;PMS5003;35568;48.104;11.782;2023-08-01T16:36:31;0;0;
48155;PMS5003;35568;48.104;11.782;2023-08-01T16:38:58;0;0;